createdAt,value
2019-02-20T00:02:25.538Z,98019.76
2019-02-20T00:04:52.212Z,98019.97
2019-02-20T00:07:18.941Z,98015.47
2019-02-20T00:09:45.787Z,98011.36
2019-02-20T00:12:12.481Z,98024.22
2019-02-20T00:14:39.277Z,98018.46
2019-02-20T00:17:05.995Z,98019.70
2019-02-20T00:19:32.802Z,98020.11
2019-02-20T00:21:59.530Z,98020.52
2019-02-20T00:24:26.305Z,98021.45
2019-02-20T00:26:53.142Z,98031.02
2019-02-20T00:29:19.910Z,98027.20
2019-02-20T00:31:46.703Z,98033.82
2019-02-20T00:34:13.344Z,98034.54
2019-02-20T00:36:40.026Z,98023.84
2019-02-20T00:39:08.692Z,98031.66
2019-02-20T00:41:35.280Z,98028.88
2019-02-20T00:44:24.391Z,98032.27
2019-02-20T00:47:03.384Z,98032.57
2019-02-20T00:49:37.053Z,98033.09
2019-02-20T00:52:32.492Z,98027.63
2019-02-20T00:54:59.228Z,98031.54
2019-02-20T00:57:25.969Z,98038.03
2019-02-20T00:59:52.737Z,98036.28
2019-02-20T01:02:19.576Z,98040.19
2019-02-20T01:04:46.276Z,98040.91
2019-02-20T01:07:13.103Z,98041.82
2019-02-20T01:09:39.875Z,98045.31
2019-02-20T01:12:06.739Z,98043.88
2019-02-20T01:14:33.443Z,98035.95
2019-02-20T01:17:00.241Z,98042.42
2019-02-20T01:19:27.053Z,98044.79
2019-02-20T01:21:53.772Z,98049.63
2019-02-20T01:24:20.590Z,98038.00
2019-02-20T01:26:47.298Z,98038.84
2019-02-20T01:29:13.974Z,98038.73
2019-02-20T01:31:40.693Z,98035.44
2019-02-20T01:34:07.383Z,98028.33
2019-02-20T01:36:34.074Z,98033.36
2019-02-20T01:39:00.764Z,98037.27
2019-02-20T01:41:27.405Z,98037.16
2019-02-20T01:43:54.116Z,98037.35
2019-02-20T01:46:20.952Z,98034.06
2019-02-20T01:48:47.567Z,98038.27
2019-02-20T01:51:14.358Z,98034.77
2019-02-20T01:53:41.058Z,98025.34
2019-02-20T01:56:08.835Z,98026.87
2019-02-20T01:58:35.544Z,98021.00
2019-02-20T02:01:02.326Z,98028.70
2019-02-20T02:03:29.110Z,98032.28
2019-02-20T02:05:55.820Z,98037.71
2019-02-20T02:08:22.570Z,98033.39
2019-02-20T02:10:49.237Z,98031.23
2019-02-20T02:13:15.971Z,98036.58
2019-02-20T02:15:42.658Z,98032.14
2019-02-20T02:18:09.377Z,98026.49
2019-02-20T02:20:36.201Z,98026.49
2019-02-20T02:23:03.020Z,98028.66
2019-02-20T02:25:29.779Z,98028.84
2019-02-20T02:27:56.464Z,98024.22
2019-02-20T02:30:23.215Z,98027.95
2019-02-20T02:32:49.779Z,98024.34
2019-02-20T02:35:16.372Z,98027.52
2019-02-20T02:37:42.923Z,98018.06
2019-02-20T02:40:09.600Z,98018.34
2019-02-20T02:42:36.275Z,98017.52
2019-02-20T02:45:03.033Z,98021.92
2019-02-20T02:47:29.812Z,98018.94
2019-02-20T02:49:56.385Z,98015.76
2019-02-20T02:52:23.083Z,98020.08
2019-02-20T02:54:49.756Z,98017.91
2019-02-20T02:57:16.409Z,98022.83
2019-02-20T02:59:43.156Z,98014.50
2019-02-20T03:02:09.808Z,98015.45
2019-02-20T03:04:36.489Z,98018.11
2019-02-20T03:07:03.180Z,98027.77
2019-02-20T03:09:29.814Z,98025.09
2019-02-20T03:11:56.470Z,98029.61
2019-02-20T03:14:23.084Z,98030.41
2019-02-20T03:16:49.738Z,98023.02
2019-02-20T03:19:16.445Z,98022.91
2019-02-20T03:21:43.093Z,98029.34
2019-02-20T03:24:09.940Z,98025.11
2019-02-20T03:26:36.510Z,98033.81
2019-02-20T03:29:03.149Z,98039.78
2019-02-20T03:31:29.900Z,98035.47
2019-02-20T03:33:56.721Z,98040.48
2019-02-20T03:36:23.670Z,98038.33
2019-02-20T03:38:50.313Z,98042.52
2019-02-20T03:41:17.007Z,98041.89
2019-02-20T03:43:43.645Z,98043.73
2019-02-20T03:46:10.345Z,98043.94
2019-02-20T03:48:37.011Z,98051.11
2019-02-20T03:51:03.694Z,98043.81
2019-02-20T03:53:30.394Z,98053.78
2019-02-20T03:55:57.170Z,98050.41
2019-02-20T03:58:23.773Z,98055.23
2019-02-20T04:00:50.453Z,98056.88
2019-02-20T04:03:17.229Z,98062.53
2019-02-20T04:05:43.757Z,98054.92
2019-02-20T04:08:10.560Z,98055.74
2019-02-20T04:10:37.214Z,98057.08
2019-02-20T04:13:03.989Z,98063.55
2019-02-20T04:15:30.842Z,98065.20
2019-02-20T04:17:57.567Z,98067.05
2019-02-20T04:20:24.328Z,98065.59
2019-02-20T04:22:50.879Z,98071.63
2019-02-20T04:25:17.463Z,98071.83
2019-02-20T04:27:44.123Z,98070.41
2019-02-20T04:30:13.359Z,98074.41
2019-02-20T04:32:40.055Z,98073.45
2019-02-20T04:35:07.423Z,98074.16
2019-02-20T04:37:34.103Z,98069.53
2019-02-20T04:40:00.843Z,98067.77
2019-02-20T04:42:27.673Z,98063.76
2019-02-20T04:44:54.354Z,98070.94
2019-02-20T04:47:21.147Z,98072.27
2019-02-20T04:49:47.934Z,98067.95
2019-02-20T04:52:14.791Z,98064.34
2019-02-20T04:54:41.371Z,98071.83
2019-02-20T04:57:08.049Z,98073.67
2019-02-20T04:59:34.813Z,98081.36
2019-02-20T05:02:01.691Z,98078.38
2019-02-20T05:04:28.447Z,98083.20
2019-02-20T05:06:56.297Z,98086.25
2019-02-20T05:09:23.056Z,98087.59
2019-02-20T05:11:49.739Z,98086.13
2019-02-20T05:14:16.344Z,98088.16
2019-02-20T05:16:43.083Z,98084.17
2019-02-20T05:19:09.883Z,98086.23
2019-02-20T05:21:36.518Z,98086.83
2019-02-20T05:24:03.212Z,98086.45
2019-02-20T05:26:29.889Z,98087.20
2019-02-20T05:28:56.617Z,98087.45
2019-02-20T05:31:23.252Z,98087.69
2019-02-20T05:33:49.937Z,98094.41
2019-02-20T05:36:16.725Z,98090.30
2019-02-20T05:38:43.419Z,98097.29
2019-02-20T05:41:10.218Z,98101.22
2019-02-20T05:43:36.727Z,98095.05
2019-02-20T05:46:03.480Z,98104.08
2019-02-20T05:48:30.176Z,98107.13
2019-02-20T05:50:56.930Z,98104.47
2019-02-20T05:53:23.660Z,98103.95
2019-02-20T05:55:50.271Z,98105.48
2019-02-20T05:58:16.956Z,98097.39
2019-02-20T06:00:43.508Z,98097.78
2019-02-20T06:03:10.403Z,98107.75
2019-02-20T06:05:37.046Z,98107.13
2019-02-20T06:08:03.702Z,98116.40
2019-02-20T06:10:30.370Z,98116.84
2019-02-20T06:12:56.954Z,98119.38
2019-02-20T06:15:23.727Z,98123.51
2019-02-20T06:17:50.287Z,98128.02
2019-02-20T06:20:17.089Z,98137.09
2019-02-20T06:22:43.651Z,98141.14
2019-02-20T06:25:10.580Z,98136.45
2019-02-20T06:27:37.243Z,98133.59
2019-02-20T06:30:06.429Z,98134.02
2019-02-20T06:32:33.179Z,98139.59
2019-02-20T06:34:59.955Z,98144.94
2019-02-20T06:37:26.531Z,98146.20
2019-02-20T06:39:53.239Z,98148.43
2019-02-20T06:42:19.946Z,98150.13
2019-02-20T06:44:46.593Z,98150.75
2019-02-20T06:47:13.355Z,98153.62
2019-02-20T06:49:40.064Z,98155.98
2019-02-20T06:52:06.860Z,98159.52
2019-02-20T06:54:33.554Z,98165.33
2019-02-20T06:57:00.219Z,98174.41
2019-02-20T06:59:28.269Z,98169.81
2019-02-20T07:01:54.930Z,98168.73
2019-02-20T07:04:21.810Z,98174.91
2019-02-20T07:07:16.939Z,98168.77
2019-02-20T07:10:01.807Z,98176.01
2019-02-20T07:12:46.007Z,98175.33
2019-02-20T07:15:49.828Z,98172.98
2019-02-20T07:18:23.779Z,98173.59
2019-02-20T07:21:47.655Z,98179.16
2019-02-20T07:24:40.493Z,98183.61
2019-02-20T07:27:40.221Z,98188.34
2019-02-20T07:30:09.301Z,98188.96
2019-02-20T07:32:35.881Z,98194.30
2019-02-20T07:35:02.595Z,98198.31
2019-02-20T07:37:29.223Z,98201.09
2019-02-20T07:39:57.419Z,98201.41
2019-02-20T07:42:24.462Z,98206.25
2019-02-20T07:44:51.128Z,98209.23
2019-02-20T07:47:17.819Z,98202.66
2019-02-20T07:49:44.360Z,98209.34
2019-02-20T07:52:11.046Z,98207.70
2019-02-20T07:54:37.895Z,98218.70
2019-02-20T07:57:04.685Z,98219.02
2019-02-20T07:59:31.449Z,98225.19
2019-02-20T08:01:58.120Z,98227.95
2019-02-20T08:04:24.930Z,98224.58
2019-02-20T08:06:51.587Z,98230.55
2019-02-20T08:09:18.250Z,98222.52
2019-02-20T08:11:44.989Z,98230.55
2019-02-20T08:14:11.704Z,98232.52
2019-02-20T08:16:38.379Z,98223.31
2019-02-20T08:19:05.020Z,98227.84
2019-02-20T08:21:31.780Z,98225.79
2019-02-20T08:23:58.422Z,98227.81
2019-02-20T08:26:25.120Z,98228.73
2019-02-20T08:28:51.785Z,98246.14
2019-02-20T08:31:18.434Z,98242.50
2019-02-20T08:33:45.081Z,98245.89
2019-02-20T08:36:11.797Z,98254.22
2019-02-20T08:38:39.528Z,98253.09
2019-02-20T08:41:06.324Z,98255.56
2019-02-20T08:43:32.862Z,98252.67
2019-02-20T08:45:59.531Z,98258.18
2019-02-20T08:48:26.595Z,98259.39
2019-02-20T08:50:53.622Z,98265.02
2019-02-20T08:53:20.294Z,98261.16
2019-02-20T08:55:47.084Z,98265.06
2019-02-20T08:58:13.779Z,98260.66
2019-02-20T09:00:40.555Z,98256.63
2019-02-20T09:03:07.170Z,98265.58
2019-02-20T09:05:34.279Z,98269.30
2019-02-20T09:08:01.089Z,98268.61
2019-02-20T09:10:27.761Z,98268.92
2019-02-20T09:12:54.361Z,98277.16
2019-02-20T09:15:21.042Z,98282.72
2019-02-20T09:17:47.710Z,98277.97
2019-02-20T09:20:14.460Z,98272.03
2019-02-20T09:22:41.120Z,98270.47
2019-02-20T09:25:08.649Z,98274.88
2019-02-20T09:27:35.413Z,98271.92
2019-02-20T09:30:02.136Z,98279.03
2019-02-20T09:32:28.772Z,98285.53
2019-02-20T09:34:55.424Z,98286.31
2019-02-20T09:37:22.133Z,98289.57
2019-02-20T09:39:48.809Z,98292.63
2019-02-20T09:42:17.529Z,98284.33
2019-02-20T09:44:48.105Z,98291.95
2019-02-20T09:47:15.241Z,98288.34
2019-02-20T09:49:41.891Z,98286.42
2019-02-20T09:52:08.683Z,98292.34
2019-02-20T09:54:35.422Z,98289.22
2019-02-20T09:57:02.009Z,98294.31
2019-02-20T09:59:28.780Z,98295.05
2019-02-20T10:01:55.599Z,98286.97
2019-02-20T10:04:22.236Z,98287.95
2019-02-20T10:06:48.876Z,98286.73
2019-02-20T10:09:16.309Z,98293.89
2019-02-20T10:11:43.178Z,98296.40
2019-02-20T10:14:09.920Z,98293.13
2019-02-20T10:16:36.597Z,98288.38
2019-02-20T10:19:03.352Z,98287.45
2019-02-20T10:21:30.012Z,98289.64
2019-02-20T10:23:56.698Z,98295.64
2019-02-20T10:26:23.387Z,98295.30
2019-02-20T10:28:50.162Z,98292.25
2019-02-20T10:31:17.805Z,98294.95
2019-02-20T10:33:44.469Z,98297.21
2019-02-20T10:36:11.102Z,98284.94
2019-02-20T10:38:37.758Z,98284.58
2019-02-20T10:41:04.535Z,98292.92
2019-02-20T10:43:31.091Z,98295.86
2019-02-20T10:45:58.817Z,98299.56
2019-02-20T10:48:25.654Z,98300.59
2019-02-20T10:50:52.327Z,98296.80
2019-02-20T10:53:19.018Z,98290.22
2019-02-20T10:55:45.676Z,98295.56
2019-02-20T10:58:12.681Z,98288.52
2019-02-20T11:00:39.264Z,98287.09
2019-02-20T11:03:06.095Z,98295.96
2019-02-20T11:05:33.400Z,98294.10
2019-02-20T11:08:00.161Z,98293.75
2019-02-20T11:10:26.833Z,98292.67
2019-02-20T11:12:53.516Z,98293.16
2019-02-20T11:15:20.295Z,98294.99
2019-02-20T11:17:46.962Z,98292.20
2019-02-20T11:20:13.930Z,98282.39
2019-02-20T11:22:40.631Z,98287.53
2019-02-20T11:25:08.066Z,98289.78
2019-02-20T11:27:34.666Z,98286.70
2019-02-20T11:30:01.328Z,98285.19
2019-02-20T11:32:27.924Z,98279.52
2019-02-20T11:34:54.679Z,98275.34
2019-02-20T11:37:21.466Z,98273.38
2019-02-20T11:39:48.251Z,98262.92
2019-02-20T11:42:14.937Z,98261.00
2019-02-20T11:44:41.728Z,98262.83
2019-02-20T11:47:08.470Z,98255.11
2019-02-20T11:49:35.020Z,98253.59
2019-02-20T11:52:01.591Z,98254.12
2019-02-20T11:54:28.281Z,98252.66
2019-02-20T11:56:54.956Z,98254.27
2019-02-20T11:59:21.703Z,98253.48
2019-02-20T12:01:54.314Z,98252.51
2019-02-20T12:04:21.024Z,98250.89
2019-02-20T12:06:47.810Z,98251.41
2019-02-20T12:09:14.723Z,98244.59
2019-02-20T12:11:41.387Z,98246.30
2019-02-20T12:14:07.964Z,98240.34
2019-02-20T12:16:34.639Z,98246.05
2019-02-20T12:19:01.367Z,98246.98
2019-02-20T12:21:28.172Z,98252.42
2019-02-20T12:23:55.054Z,98249.67
2019-02-20T12:26:21.912Z,98251.70
2019-02-20T12:28:48.692Z,98254.60
2019-02-20T12:31:15.437Z,98250.47
2019-02-20T12:33:42.106Z,98251.99
2019-02-20T12:36:08.872Z,98244.09
2019-02-20T12:38:37.185Z,98246.52
2019-02-20T12:41:04.009Z,98244.80
2019-02-20T12:43:30.686Z,98256.16
2019-02-20T12:45:57.356Z,98243.72
2019-02-20T12:48:24.098Z,98245.17
2019-02-20T12:50:50.696Z,98240.80
2019-02-20T12:53:17.446Z,98241.88
2019-02-20T12:55:44.204Z,98250.20
2019-02-20T12:58:10.872Z,98241.63
2019-02-20T13:00:37.627Z,98245.63
2019-02-20T13:03:04.518Z,98238.61
2019-02-20T13:05:31.270Z,98238.53
2019-02-20T13:07:58.069Z,98229.84
2019-02-20T13:10:24.711Z,98245.28
2019-02-20T13:12:51.287Z,98240.47
2019-02-20T13:15:19.180Z,98243.35
2019-02-20T13:17:46.097Z,98244.72
2019-02-20T13:20:12.790Z,98242.02
2019-02-20T13:22:39.486Z,98233.84
2019-02-20T13:25:06.490Z,98234.95
2019-02-20T13:27:33.168Z,98231.70
2019-02-20T13:30:00.264Z,98230.89
2019-02-20T13:32:27.097Z,98227.36
2019-02-20T13:34:53.929Z,98230.85
2019-02-20T13:37:20.599Z,98225.42
2019-02-20T13:39:47.275Z,98221.12
2019-02-20T13:42:14.407Z,98221.14
2019-02-20T13:44:41.065Z,98222.02
2019-02-20T13:47:07.860Z,98230.85
2019-02-20T13:49:34.421Z,98227.80
2019-02-20T13:52:01.113Z,98221.44
2019-02-20T13:54:27.777Z,98222.64
2019-02-20T13:57:01.779Z,98221.84
2019-02-20T13:59:24.911Z,98216.14
2019-02-20T14:01:51.974Z,98220.73
2019-02-20T14:04:18.703Z,98207.75
2019-02-20T14:06:45.514Z,98214.16
2019-02-20T14:09:12.154Z,98215.06
2019-02-20T14:11:38.940Z,98216.80
2019-02-20T14:14:05.905Z,98210.71
2019-02-20T14:16:32.621Z,98212.91
2019-02-20T14:18:59.313Z,98207.28
2019-02-20T14:21:26.978Z,98209.54
2019-02-20T14:23:53.646Z,98210.43
2019-02-20T14:26:20.374Z,98205.86
2019-02-20T14:28:47.060Z,98207.22
2019-02-20T14:31:13.847Z,98205.22
2019-02-20T14:33:40.529Z,98202.77
2019-02-20T14:36:07.232Z,98203.83
2019-02-20T14:38:33.888Z,98212.39
2019-02-20T14:41:01.085Z,98213.47
2019-02-20T14:43:27.825Z,98213.17
2019-02-20T14:45:54.512Z,98205.55
2019-02-20T14:48:21.435Z,98209.66
2019-02-20T14:50:48.097Z,98210.48
2019-02-20T14:53:14.907Z,98208.00
2019-02-20T14:55:41.608Z,98209.90
2019-02-20T14:58:08.330Z,98207.40
2019-02-20T15:00:35.086Z,98210.34
2019-02-20T15:03:01.847Z,98213.84
2019-02-20T15:05:30.431Z,98212.44
2019-02-20T15:07:57.343Z,98208.55
2019-02-20T15:10:24.045Z,98213.41
2019-02-20T15:12:50.880Z,98210.89
2019-02-20T15:15:18.974Z,98215.95
2019-02-20T15:17:45.968Z,98213.75
2019-02-20T15:20:13.014Z,98214.00
2019-02-20T15:22:39.694Z,98214.00
2019-02-20T15:25:06.586Z,98212.88
2019-02-20T15:27:33.138Z,98212.36
2019-02-20T15:29:59.987Z,98213.12
2019-02-20T15:32:26.769Z,98213.38
2019-02-20T15:34:53.535Z,98215.62
2019-02-20T15:37:20.213Z,98213.41
2019-02-20T15:39:47.316Z,98210.60
2019-02-20T15:42:14.082Z,98212.74
2019-02-20T15:44:40.747Z,98215.07
2019-02-20T15:47:07.720Z,98208.80
2019-02-20T15:49:34.623Z,98212.14
2019-02-20T15:52:01.251Z,98219.38
2019-02-20T15:54:27.935Z,98218.69
2019-02-20T15:56:54.712Z,98213.45
2019-02-20T15:59:21.379Z,98217.18
2019-02-20T16:01:48.445Z,98216.57
2019-02-20T16:04:15.108Z,98214.64
2019-02-20T16:06:41.879Z,98211.31
2019-02-20T16:09:08.564Z,98215.58
2019-02-20T16:11:35.149Z,98223.63
2019-02-20T16:14:01.975Z,98221.41
2019-02-20T16:16:28.632Z,98221.08
2019-02-20T16:18:55.322Z,98221.56
2019-02-20T16:21:22.258Z,98220.98
2019-02-20T16:23:48.992Z,98225.48
2019-02-20T16:26:15.582Z,98226.95
2019-02-20T16:28:42.815Z,98220.10
2019-02-20T16:31:09.506Z,98221.36
2019-02-20T16:33:36.236Z,98225.91
2019-02-20T16:36:03.052Z,98221.47
2019-02-20T16:38:29.859Z,98231.66
2019-02-20T16:40:56.944Z,98227.70
2019-02-20T16:43:23.792Z,98223.31
2019-02-20T16:45:50.517Z,98218.61
2019-02-20T16:48:17.400Z,98228.55
2019-02-20T16:50:44.052Z,98234.10
2019-02-20T16:53:10.843Z,98231.54
2019-02-20T16:55:37.612Z,98228.19
2019-02-20T16:58:04.384Z,98223.20
2019-02-20T17:00:31.404Z,98224.45
2019-02-20T17:02:58.215Z,98229.22
2019-02-20T17:05:25.054Z,98236.40
2019-02-20T17:07:51.901Z,98231.45
2019-02-20T17:10:18.725Z,98233.52
2019-02-20T17:12:45.623Z,98242.56
2019-02-20T17:15:12.398Z,98245.73
2019-02-20T17:17:39.318Z,98247.03
2019-02-20T17:20:08.215Z,98252.61
2019-02-20T17:22:35.075Z,98256.11
2019-02-20T17:25:02.060Z,98262.80
2019-02-20T17:27:28.943Z,98257.63
2019-02-20T17:29:56.762Z,98267.32
2019-02-20T17:32:23.600Z,98268.91
2019-02-20T17:34:50.140Z,98281.05
2019-02-20T17:37:16.819Z,98277.77
2019-02-20T17:39:43.682Z,98273.36
2019-02-20T17:42:10.876Z,98274.95
2019-02-20T17:44:37.871Z,98277.87
2019-02-20T17:47:04.531Z,98280.81
2019-02-20T17:49:31.230Z,98279.46
2019-02-20T17:51:58.057Z,98291.31
2019-02-20T17:54:24.961Z,98289.91
2019-02-20T17:56:52.191Z,98294.42
2019-02-20T17:59:18.987Z,98297.09
2019-02-20T18:01:45.828Z,98303.24
2019-02-20T18:04:12.494Z,98304.99
2019-02-20T18:06:39.313Z,98305.10
2019-02-20T18:09:06.097Z,98307.44
2019-02-20T18:11:32.923Z,98302.21
2019-02-20T18:13:59.679Z,98311.36
2019-02-20T18:16:26.382Z,98310.50
2019-02-20T18:18:52.999Z,98302.12
2019-02-20T18:21:19.721Z,98299.72
2019-02-20T18:23:46.653Z,98308.33
2019-02-20T18:26:13.335Z,98310.44
2019-02-20T18:28:40.235Z,98316.06
2019-02-20T18:31:06.779Z,98309.62
2019-02-20T18:33:33.562Z,98311.20
2019-02-20T18:36:00.110Z,98305.28
2019-02-20T18:38:26.871Z,98311.13
2019-02-20T18:40:55.258Z,98310.77
2019-02-20T18:43:22.081Z,98321.03
2019-02-20T18:45:48.851Z,98323.44
2019-02-20T18:48:15.493Z,98330.93
2019-02-20T18:50:42.134Z,98330.05
2019-02-20T18:53:08.903Z,98332.83
2019-02-20T18:55:35.811Z,98334.60
2019-02-20T18:58:02.604Z,98333.58
2019-02-20T19:00:29.325Z,98337.18
2019-02-20T19:02:56.124Z,98341.08
2019-02-20T19:05:22.986Z,98344.42
2019-02-20T19:07:49.697Z,98344.58
2019-02-20T19:10:26.275Z,98335.59
2019-02-20T19:13:34.864Z,98342.86
2019-02-20T19:16:39.625Z,98338.14
2019-02-20T19:19:39.079Z,98346.68
2019-02-20T19:22:57.030Z,98347.95
2019-02-20T19:26:01.698Z,98351.92
2019-02-20T19:28:47.330Z,98342.91
2019-02-20T19:31:33.496Z,98345.45
2019-02-20T19:34:25.170Z,98349.53
2019-02-20T19:37:42.155Z,98345.34
2019-02-20T19:40:51.935Z,98358.66
2019-02-20T19:43:49.746Z,98360.63
2019-02-20T19:46:45.889Z,98363.69
2019-02-20T19:50:09.589Z,98364.65
2019-02-20T19:52:49.541Z,98361.58
2019-02-20T19:55:43.911Z,98366.28
2019-02-20T19:58:33.254Z,98372.96
2019-02-20T20:01:54.068Z,98374.45
2019-02-20T20:04:52.298Z,98380.28
2019-02-20T20:08:25.256Z,98376.38
2019-02-20T20:11:45.845Z,98381.59
2019-02-20T20:14:30.817Z,98376.74
2019-02-20T20:17:36.012Z,98381.13
2019-02-20T20:20:14.412Z,98386.56
2019-02-20T20:23:32.524Z,98390.34
2019-02-20T20:26:47.437Z,98389.08
2019-02-20T20:30:04.066Z,98384.35
2019-02-20T20:32:52.557Z,98386.95
2019-02-20T20:35:51.731Z,98391.52
2019-02-20T20:38:47.933Z,98391.52
2019-02-20T20:41:45.206Z,98392.03
2019-02-20T20:44:37.997Z,98386.73
2019-02-20T20:47:37.125Z,98387.65
2019-02-20T20:50:18.442Z,98393.03
2019-02-20T20:53:42.294Z,98390.42
2019-02-20T20:56:39.007Z,98397.89
2019-02-20T20:59:21.156Z,98399.66
2019-02-20T21:01:55.465Z,98403.52
2019-02-20T21:05:01.261Z,98401.88
2019-02-20T21:07:56.956Z,98407.17
2019-02-20T21:11:17.504Z,98409.03
2019-02-20T21:14:25.524Z,98396.33
2019-02-20T21:17:50.843Z,98397.58
2019-02-20T21:21:09.860Z,98401.92
2019-02-20T21:24:15.782Z,98401.95
2019-02-20T21:27:25.270Z,98401.29
2019-02-20T21:31:01.680Z,98409.27
2019-02-20T21:33:54.896Z,98403.59
2019-02-20T21:37:15.701Z,98406.36
2019-02-20T21:40:05.806Z,98413.08
2019-02-20T21:43:10.693Z,98404.50
2019-02-20T21:46:25.783Z,98406.30
2019-02-20T21:49:40.536Z,98408.34
2019-02-20T21:52:54.381Z,98406.34
2019-02-20T21:56:00.199Z,98413.76
2019-02-20T21:59:11.228Z,98412.20
2019-02-20T22:02:04.043Z,98411.16
2019-02-20T22:04:47.057Z,98414.37
2019-02-20T22:07:58.939Z,98413.41
2019-02-20T22:11:08.267Z,98412.98
2019-02-20T22:14:00.708Z,98412.21
2019-02-20T22:17:02.179Z,98407.96
2019-02-20T22:19:52.243Z,98409.61
2019-02-20T22:23:16.170Z,98414.47
2019-02-20T22:26:02.248Z,98412.30
2019-02-20T22:29:11.351Z,98412.08
2019-02-20T22:32:35.462Z,98410.95
2019-02-20T22:35:53.647Z,98408.17
2019-02-20T22:38:48.281Z,98415.97
2019-02-20T22:42:05.392Z,98412.67
2019-02-20T22:45:16.792Z,98423.80
2019-02-20T22:48:25.273Z,98413.56
2019-02-20T22:51:44.015Z,98419.23
2019-02-20T22:54:42.980Z,98414.38
2019-02-20T22:57:54.746Z,98417.23
2019-02-20T23:00:57.668Z,98420.23
2019-02-20T23:03:33.002Z,98426.03
2019-02-20T23:06:28.297Z,98424.60
2019-02-20T23:09:25.806Z,98429.38
2019-02-20T23:12:31.092Z,98427.42
2019-02-20T23:14:57.883Z,98426.72
2019-02-20T23:17:27.000Z,98431.41
2019-02-20T23:19:53.443Z,98429.66
2019-02-20T23:22:20.204Z,98434.16
2019-02-20T23:24:46.876Z,98432.20
2019-02-20T23:27:13.684Z,98433.67
2019-02-20T23:29:40.488Z,98438.25
2019-02-20T23:32:07.146Z,98440.76
2019-02-20T23:34:33.860Z,98435.14
2019-02-20T23:37:00.656Z,98433.61
2019-02-20T23:39:27.421Z,98440.75
2019-02-20T23:41:54.184Z,98433.54
2019-02-20T23:44:20.727Z,98436.55
2019-02-20T23:46:47.333Z,98442.28
2019-02-20T23:49:14.051Z,98438.59
2019-02-20T23:51:40.835Z,98440.87
2019-02-20T23:54:07.594Z,98446.97
2019-02-20T23:56:34.439Z,98450.69
2019-02-20T23:59:01.126Z,98449.66
